< < Back
Terminal Aerodrome Forecast


Current Version              Previous Versions:   1  2  3  4  5  6  7  8  9  

Terminal Aerodrome Forecast

399
FTUS42 KGSP 281733
TAFAND
TAF
KAND 281733Z 2818/2918 22004KT P6SM SCT250
     FM282300 00000KT P6SM SCT250
     FM291500 22006KT P6SM BKN250=

Latest METAR

642
SAUS70 KWBC 281800
MTRAND
METAR KAND 281756Z AUTO VRB05KT 10SM CLR 07/M07 A3032 RMK AO2 SLP270
T00671072 10067 21039 58027


USA.gov is the U.S. government's official web portal to all federal, state and local government web resources and services.